createdAt,value
2023-05-21T09:29:27.535Z,101037.88
2023-05-21T09:31:56.956Z,101043.38
2023-05-21T09:34:26.167Z,101039.97
2023-05-21T09:36:57.666Z,101044.63
2023-05-21T09:39:29.503Z,101047.28
2023-05-21T09:41:58.773Z,101049.53
2023-05-21T09:44:29.095Z,101048.25
2023-05-21T09:46:59.540Z,101054.63
2023-05-21T09:49:28.053Z,101053.06
2023-05-21T09:51:57.552Z,101058.31
2023-05-21T09:54:25.892Z,101054.88
2023-05-21T09:56:53.633Z,101046.88
2023-05-21T09:59:21.981Z,101054.88
2023-05-21T10:01:53.113Z,101041.69
2023-05-21T10:04:20.923Z,101039.09
2023-05-21T10:06:49.480Z,101039.38
2023-05-21T10:09:19.997Z,101039.47
2023-05-21T10:11:50.432Z,101031.47
2023-05-21T10:14:21.002Z,101025.16
2023-05-21T10:16:49.052Z,101022.53
2023-05-21T10:19:18.565Z,101027.19
2023-05-21T10:21:47.193Z,101012.09
2023-05-21T10:24:15.134Z,101014.72
2023-05-21T10:26:43.548Z,101008.63
2023-05-21T10:29:11.994Z,101006.69
2023-05-21T10:31:40.520Z,101003.03
2023-05-21T10:34:09.164Z,101000.00
2023-05-21T10:36:39.243Z,100999.88
2023-05-21T10:39:09.508Z,100995.84
2023-05-21T10:41:46.630Z,100993.44
2023-05-21T10:44:25.446Z,100996.66
2023-05-21T10:47:16.328Z,100990.75
2023-05-21T10:49:58.438Z,100986.41
2023-05-21T10:52:38.477Z,100979.19
2023-05-21T10:55:18.805Z,100985.03
2023-05-21T10:58:11.877Z,100986.34
2023-05-21T11:00:39.984Z,100982.97
2023-05-21T11:03:09.112Z,100979.25
2023-05-21T11:05:41.315Z,100985.09
2023-05-21T11:08:23.416Z,100990.97
2023-05-21T11:10:57.862Z,100984.97
2023-05-21T11:13:26.882Z,100976.63
2023-05-21T11:16:07.135Z,100972.06
2023-05-21T11:19:02.886Z,100971.47
2023-05-21T11:21:32.282Z,100963.59
2023-05-21T11:24:10.825Z,100964.84
2023-05-21T11:27:02.277Z,100963.44
2023-05-21T11:29:44.181Z,100957.19
2023-05-21T11:32:12.224Z,100959.94
2023-05-21T11:34:41.779Z,100967.22
2023-05-21T11:37:34.707Z,100964.06
2023-05-21T11:40:20.908Z,100968.44
2023-05-21T11:42:53.153Z,100961.19
2023-05-21T11:45:22.060Z,100968.28
2023-05-21T11:47:51.379Z,100964.34
2023-05-21T11:50:19.596Z,100966.72
2023-05-21T11:52:48.056Z,100965.53
2023-05-21T11:55:16.562Z,100965.13
2023-05-21T11:57:47.856Z,100957.47
2023-05-21T12:00:17.117Z,100955.41
2023-05-21T12:02:49.186Z,100957.50
2023-05-21T12:05:17.306Z,100951.06
2023-05-21T12:07:49.839Z,100957.75
2023-05-21T12:10:21.315Z,100951.28
2023-05-21T12:12:56.503Z,100956.09
2023-05-21T12:15:25.749Z,100954.81
2023-05-21T12:17:53.598Z,100953.38
2023-05-21T12:20:21.526Z,100947.75
2023-05-21T12:22:50.526Z,100959.06
2023-05-21T12:25:20.353Z,100949.88
2023-05-21T12:27:50.184Z,100956.56
2023-05-21T12:30:17.974Z,100964.28
2023-05-21T12:32:45.654Z,100963.03
2023-05-21T12:35:22.333Z,100953.03
2023-05-21T12:37:51.444Z,100958.66
2023-05-21T12:40:19.602Z,100968.88
2023-05-21T12:42:47.439Z,100965.75
2023-05-21T12:45:18.523Z,100956.16
2023-05-21T12:47:50.114Z,100958.25
2023-05-21T12:50:21.955Z,100959.69
2023-05-21T12:52:49.702Z,100951.34
2023-05-21T12:55:18.182Z,100950.50
2023-05-21T12:57:46.475Z,100942.97
2023-05-21T13:00:14.378Z,100943.81
2023-05-21T13:02:45.730Z,100942.56
2023-05-21T13:05:17.697Z,100948.38
2023-05-21T13:07:47.153Z,100951.53
2023-05-21T13:10:16.386Z,100952.56
2023-05-21T13:12:44.812Z,100947.97
2023-05-21T13:15:13.045Z,100949.63
2023-05-21T13:17:40.866Z,100940.44
2023-05-21T13:20:12.121Z,100938.97
2023-05-21T13:22:42.292Z,100939.38
2023-05-21T13:25:11.020Z,100931.25
2023-05-21T13:27:38.993Z,100927.25
2023-05-21T13:30:08.046Z,100921.00
2023-05-21T13:32:36.008Z,100922.66
2023-05-21T13:35:05.014Z,100915.97
2023-05-21T13:37:36.625Z,100907.38
2023-05-21T13:40:06.258Z,100906.75
2023-05-21T13:42:33.928Z,100911.09
2023-05-21T13:45:02.009Z,100909.81
2023-05-21T13:47:30.162Z,100905.78
2023-05-21T13:49:57.903Z,100906.59
2023-05-21T13:52:25.539Z,100915.19
2023-05-21T13:54:54.554Z,100909.84
2023-05-21T13:57:22.337Z,100910.72
2023-05-21T13:59:50.570Z,100905.59
2023-05-21T14:02:18.302Z,100900.66
2023-05-21T14:04:46.024Z,100896.94
2023-05-21T14:07:13.813Z,100901.72
2023-05-21T14:09:42.237Z,100898.34
2023-05-21T14:12:11.779Z,100900.22
2023-05-21T14:14:39.396Z,100896.72
2023-05-21T14:17:07.407Z,100896.19
2023-05-21T14:19:35.103Z,100902.31
2023-05-21T14:22:02.962Z,100902.81
2023-05-21T14:24:31.214Z,100894.72
2023-05-21T14:26:58.861Z,100888.91
2023-05-21T14:29:27.862Z,100893.13
2023-05-21T14:31:55.527Z,100891.84
2023-05-21T14:34:23.177Z,100889.38
2023-05-21T14:36:50.811Z,100881.44
2023-05-21T14:39:18.604Z,100880.22
2023-05-21T14:41:46.267Z,100880.28
2023-05-21T14:44:13.889Z,100870.69
2023-05-21T14:46:42.947Z,100871.06
2023-05-21T14:49:11.814Z,100868.97
2023-05-21T14:51:39.424Z,100865.34
2023-05-21T14:54:07.171Z,100861.50
2023-05-21T14:56:34.832Z,100866.69
2023-05-21T14:59:02.436Z,100860.16
2023-05-21T15:01:30.147Z,100859.84
2023-05-21T15:03:59.387Z,100863.06
2023-05-21T15:06:27.918Z,100866.03
2023-05-21T15:08:55.631Z,100866.63
2023-05-21T15:11:23.291Z,100861.81
2023-05-21T15:13:50.942Z,100862.16
2023-05-21T15:16:19.728Z,100864.84
2023-05-21T15:18:47.684Z,100861.81
2023-05-21T15:21:16.832Z,100851.66
2023-05-21T15:23:45.208Z,100853.47
2023-05-21T15:26:12.844Z,100860.31
2023-05-21T15:28:40.641Z,100853.25
2023-05-21T15:31:08.297Z,100852.41
2023-05-21T15:33:37.202Z,100851.09
2023-05-21T15:36:05.196Z,100852.06
2023-05-21T15:38:34.312Z,100846.38
2023-05-21T15:41:01.952Z,100844.63
2023-05-21T15:43:29.820Z,100844.28
2023-05-21T15:45:57.481Z,100845.66
2023-05-21T15:48:25.168Z,100852.50
2023-05-21T15:50:52.801Z,100855.22
2023-05-21T15:53:20.500Z,100860.31
2023-05-21T15:55:49.709Z,100852.97
2023-05-21T15:58:17.461Z,100858.44
2023-05-21T16:00:45.149Z,100840.44
2023-05-21T16:03:13.141Z,100847.78
2023-05-21T16:05:40.829Z,100855.09
2023-05-21T16:08:10.638Z,100854.75
2023-05-21T16:10:39.801Z,100856.00
2023-05-21T16:13:08.767Z,100857.91
2023-05-21T16:15:37.025Z,100849.16
2023-05-21T16:18:05.162Z,100845.22
2023-05-21T16:20:33.307Z,100853.38
2023-05-21T16:23:01.006Z,100852.31
2023-05-21T16:25:28.680Z,100840.59
2023-05-21T16:27:56.344Z,100842.50
2023-05-21T16:30:25.432Z,100838.13
2023-05-21T16:32:53.275Z,100834.41
2023-05-21T16:35:21.075Z,100828.38
2023-05-21T16:37:48.914Z,100833.81
2023-05-21T16:40:16.587Z,100826.34
2023-05-21T16:42:44.266Z,100827.03
2023-05-21T16:45:13.263Z,100825.38
2023-05-21T16:47:42.303Z,100823.09
2023-05-21T16:50:10.902Z,100825.81
2023-05-21T16:52:38.623Z,100819.75
2023-05-21T16:55:07.136Z,100818.09
2023-05-21T16:57:34.862Z,100811.00
2023-05-21T17:00:03.623Z,100815.84
2023-05-21T17:02:31.431Z,100810.69
2023-05-21T17:05:00.566Z,100801.34
2023-05-21T17:07:28.229Z,100800.13
2023-05-21T17:09:55.967Z,100796.81
2023-05-21T17:12:23.598Z,100801.63
2023-05-21T17:14:51.968Z,100806.47
2023-05-21T17:17:20.062Z,100801.47
2023-05-21T17:19:47.741Z,100806.34
2023-05-21T17:22:16.782Z,100806.78
2023-05-21T17:24:45.847Z,100806.41
2023-05-21T17:27:13.470Z,100810.63
2023-05-21T17:29:41.366Z,100807.56
2023-05-21T17:32:09.078Z,100802.78
2023-05-21T17:34:37.149Z,100806.78
2023-05-21T17:37:04.878Z,100797.19
2023-05-21T17:39:33.874Z,100814.78
2023-05-21T17:42:01.980Z,100810.41
2023-05-21T17:44:29.599Z,100813.59
2023-05-21T17:46:57.470Z,100803.16
2023-05-21T17:49:25.397Z,100805.47
2023-05-21T17:51:53.293Z,100797.50
2023-05-21T17:54:22.250Z,100806.97
2023-05-21T17:56:51.328Z,100805.53
2023-05-21T17:59:19.079Z,100804.69
2023-05-21T18:01:47.311Z,100804.09
2023-05-21T18:04:14.952Z,100803.25
2023-05-21T18:06:44.075Z,100803.50
2023-05-21T18:09:14.162Z,100796.59
2023-05-21T18:11:43.675Z,100808.75
2023-05-21T18:14:12.655Z,100801.91
2023-05-21T18:16:41.427Z,100802.94
2023-05-21T18:19:09.191Z,100803.16
2023-05-21T18:21:37.099Z,100804.47
2023-05-21T18:24:06.112Z,100804.66
2023-05-21T18:26:33.836Z,100804.06
2023-05-21T18:29:01.474Z,100805.34
2023-05-21T18:31:30.546Z,100803.91
2023-05-21T18:33:58.444Z,100807.66
2023-05-21T18:36:26.532Z,100806.69
2023-05-21T18:38:54.226Z,100801.47
2023-05-21T18:41:22.552Z,100808.16
2023-05-21T18:43:50.157Z,100808.63
2023-05-21T18:46:18.217Z,100801.72
2023-05-21T18:48:48.509Z,100798.66
2023-05-21T18:51:16.179Z,100804.50
2023-05-21T18:53:43.820Z,100805.78
2023-05-21T18:56:11.507Z,100803.72
2023-05-21T18:58:39.101Z,100800.41
2023-05-21T19:01:07.576Z,100797.53
2023-05-21T19:03:35.419Z,100806.28
2023-05-21T19:06:04.648Z,100805.28
2023-05-21T19:08:32.264Z,100810.53
2023-05-21T19:11:00.753Z,100808.69
2023-05-21T19:13:28.365Z,100812.94
2023-05-21T19:15:57.337Z,100809.81
2023-05-21T19:18:30.039Z,100816.72
2023-05-21T19:20:57.909Z,100817.38
2023-05-21T19:23:26.944Z,100826.19
2023-05-21T19:25:54.588Z,100822.00
2023-05-21T19:28:22.248Z,100828.09
2023-05-21T19:30:49.989Z,100835.84
2023-05-21T19:33:18.445Z,100852.97
2023-05-21T19:35:46.119Z,100869.69
2023-05-21T19:38:13.879Z,100889.97
2023-05-21T19:40:43.759Z,100909.81
2023-05-21T19:43:12.822Z,100923.59
2023-05-21T19:45:40.642Z,100931.75
2023-05-21T19:48:08.459Z,100940.09
2023-05-21T19:50:36.324Z,100952.81
2023-05-21T19:53:04.214Z,100965.88
2023-05-21T19:55:35.169Z,100985.63
2023-05-21T19:58:04.454Z,100990.34
2023-05-21T20:00:32.064Z,100977.59
2023-05-21T20:02:59.763Z,100965.31
2023-05-21T20:05:27.552Z,100963.78
2023-05-21T20:07:55.848Z,100968.03
2023-05-21T20:10:23.661Z,100960.25
2023-05-21T20:12:51.350Z,100940.41
2023-05-21T20:15:20.689Z,100947.41
2023-05-21T20:17:50.290Z,100942.53
2023-05-21T20:20:18.714Z,100949.03
2023-05-21T20:22:46.717Z,100951.56
2023-05-21T20:25:14.367Z,100962.38
2023-05-21T20:27:42.185Z,100966.28
2023-05-21T20:30:10.363Z,100972.28
2023-05-21T20:32:39.528Z,100974.63
2023-05-21T20:35:09.794Z,100971.94
2023-05-21T20:37:38.309Z,100959.94
2023-05-21T20:40:09.075Z,100935.31
2023-05-21T20:42:36.855Z,100927.31
2023-05-21T20:45:04.926Z,100910.56
2023-05-21T20:47:33.656Z,100904.44
2023-05-21T20:50:03.681Z,100893.78
2023-05-21T20:52:31.695Z,100890.13
2023-05-21T20:55:00.002Z,100881.91
2023-05-21T20:57:28.155Z,100870.03
2023-05-21T20:59:56.111Z,100873.28
2023-05-21T21:02:24.377Z,100866.78
2023-05-21T21:04:53.726Z,100858.22
2023-05-21T21:07:23.127Z,100865.81
2023-05-21T21:09:50.733Z,100858.13
2023-05-21T21:14:49.194Z,100860.91
2023-05-21T21:17:17.458Z,100871.38
2023-05-21T21:19:45.087Z,100869.25
2023-05-21T21:22:12.800Z,100868.09
2023-05-21T21:24:41.750Z,100881.91
2023-05-21T21:27:09.621Z,100898.47
2023-05-21T21:29:37.597Z,100909.41
2023-05-21T21:32:06.040Z,100938.19
2023-05-21T21:34:33.730Z,100943.09
2023-05-21T21:37:01.823Z,100927.28
2023-05-21T21:39:29.476Z,100931.00
2023-05-21T21:41:58.592Z,100911.31
2023-05-21T21:44:27.059Z,100883.94
2023-05-21T21:46:54.779Z,100867.31
2023-05-21T21:49:22.389Z,100855.69
2023-05-21T21:51:51.141Z,100864.81
2023-05-21T21:54:18.763Z,100872.03
2023-05-21T21:56:46.344Z,100863.28
2023-05-21T21:59:15.487Z,100882.31
2023-05-21T22:01:43.357Z,100886.88
2023-05-21T22:04:11.807Z,100869.41
2023-05-21T22:06:39.894Z,100875.31
2023-05-21T22:09:08.860Z,100880.69
2023-05-21T22:11:36.529Z,100881.38
2023-05-21T22:14:05.217Z,100879.50
2023-05-21T22:16:34.333Z,100876.81
2023-05-21T22:19:02.784Z,100854.47
2023-05-21T22:21:32.817Z,100850.94
2023-05-21T22:24:00.769Z,100843.00
2023-05-21T22:26:28.382Z,100840.16
2023-05-21T22:28:55.963Z,100832.75
2023-05-21T22:31:23.622Z,100838.97
2023-05-21T22:33:52.700Z,100834.41
2023-05-21T22:36:21.070Z,100825.31
2023-05-21T22:38:48.670Z,100821.63
2023-05-21T22:41:16.312Z,100822.09
2023-05-21T22:43:43.936Z,100811.13
2023-05-21T22:46:11.755Z,100821.06
2023-05-21T22:48:41.702Z,100813.81
2023-05-21T22:51:11.251Z,100808.44
2023-05-21T22:53:38.911Z,100810.97
2023-05-21T22:56:06.918Z,100813.47
2023-05-21T22:58:34.723Z,100810.78
2023-05-21T23:01:02.346Z,100817.81
2023-05-21T23:03:30.401Z,100823.22
2023-05-21T23:05:58.067Z,100828.59
2023-05-21T23:08:27.012Z,100826.75
2023-05-21T23:10:54.669Z,100832.97
2023-05-21T23:13:22.269Z,100825.91
2023-05-21T23:15:50.586Z,100822.56
2023-05-21T23:18:18.224Z,100835.84
2023-05-21T23:20:46.487Z,100832.50
2023-05-21T23:23:14.140Z,100831.81
2023-05-21T23:25:43.087Z,100825.59
2023-05-21T23:28:11.608Z,100829.31
2023-05-21T23:30:39.599Z,100825.81
2023-05-21T23:33:08.116Z,100832.00
2023-05-21T23:35:35.779Z,100831.19
2023-05-21T23:38:03.537Z,100839.25
2023-05-21T23:40:31.138Z,100835.72
2023-05-21T23:43:00.494Z,100840.28
2023-05-21T23:45:28.130Z,100827.84
2023-05-21T23:47:55.843Z,100830.53
2023-05-21T23:50:25.841Z,100812.88
2023-05-21T23:52:53.577Z,100793.69
2023-05-21T23:55:21.360Z,100798.88
2023-05-21T23:57:48.978Z,100802.41
